ADDS METAR Data INFO
IDs: Format: Raw Decoded Include TAF

Data at: 1815 UTC 19 Oct 2017

KPRS 191755Z AUTO 10004KT 10SM BKN120 27/06 A3008 RMK AO2 T02660062 10266 20187
KPRS 191735Z AUTO 09004KT 10SM OVC120 27/06 A3009 RMK AO2 T02660055
KPRS 191715Z AUTO 00000KT 10SM BKN120 26/05 A3009 RMK AO2 T02620050
KPRS 191655Z AUTO 09003KT 10SM SCT120 25/05 A3010 RMK AO2 T02540051
KPRS 191635Z AUTO 00000KT 10SM CLR 26/05 A3010 RMK AO2 T02550051
KPRS 191615Z AUTO 08005KT 10SM SCT120 25/05 A3010 RMK AO2 T02540051
KPRS 191555Z AUTO 07004KT 10SM BKN120 25/06 A3010 RMK AO2 T02490055
KPRS 191535Z AUTO 09005KT 10SM OVC120 23/06 A3011 RMK AO2 T02340055
KPRS 191515Z AUTO 07004KT 10SM BKN120 23/06 A3010 RMK AO2 T02310064
KPRS 191455Z AUTO 06003KT 10SM SCT120 22/07 A3010 RMK AO2 T02200068
KPRS 191435Z AUTO 00000KT 10SM SCT120 21/08 A3009 RMK AO2 T02130078
KPRS 191415Z AUTO 00000KT 10SM SCT120 21/08 A3008 RMK AO2 T02070080
KPRS 191355Z AUTO 35004KT 10SM SCT120 20/08 A3008 RMK AO2 T01980078
KPRS 191335Z AUTO 33003KT 10SM CLR 19/08 A3007 RMK AO2 T01890075
KPRS 191315Z AUTO 28004KT 10SM CLR 19/08 A3006 RMK AO2 T01890075
KPRS 191255Z AUTO 00000KT 10SM CLR 20/08 A3006 RMK AO2 T02040076
KPRS 191235Z AUTO 22003KT 10SM CLR 21/07 A3005 RMK AO2 T02120066
KPRS 191215Z AUTO 03003KT 10SM CLR 22/06 A3005 RMK AO2 T02160063
KPRS 191155Z AUTO 02005KT 10SM CLR 22/07 A3004 RMK AO2 T02200065 10244 20198
KPRS 191135Z AUTO 02005KT 10SM CLR 22/07 A3004 RMK AO2 T02200071
KPRS 191115Z AUTO 01004KT 10SM CLR 22/09 A3003 RMK AO2 T02160085
KPRS 191055Z AUTO 01006KT 10SM CLR 22/09 A3003 RMK AO2 T02160090
KPRS 191035Z AUTO 01006KT 10SM CLR 21/09 A3004 RMK AO2 T02130094
KPRS 191015Z AUTO 01006KT 10SM CLR 21/09 A3003 RMK AO2 T02100086
KPRS 190955Z AUTO 36005KT 10SM CLR 21/08 A3004 RMK AO2 T02070081
KPRS 190935Z AUTO 36005KT 10SM CLR 21/08 A3004 RMK AO2 T02050078
KPRS 190915Z AUTO 35006KT 10SM CLR 20/08 A3004 RMK AO2 T02020080
KPRS 190855Z AUTO 34006KT 10SM CLR 20/08 A3004 RMK AO2 T02010081
KPRS 190835Z AUTO 01006KT 10SM CLR 21/08 A3004 RMK AO2 T02100077
KPRS 190815Z AUTO 31004KT 10SM CLR 20/08 A3005 RMK AO2 T02040077
KPRS 190755Z AUTO 00000KT 10SM CLR 20/07 A3005 RMK AO2 T02040066
KPRS 190735Z AUTO 00000KT 10SM CLR 23/06 A3004 RMK AO2 T02290064
KPRS 190715Z AUTO 00000KT 10SM CLR 23/08 A3004 RMK AO2 T02260076
KPRS 190655Z AUTO 09003KT 10SM CLR 23/07 A3005 RMK AO2 T02260068
KPRS 190635Z AUTO 14004KT 10SM CLR 23/08 A3006 RMK AO2 T02300081
KPRS 190615Z AUTO 15004KT 10SM CLR 23/09 A3006 RMK AO2 T02300086
KPRS 190555Z AUTO 36006KT 10SM CLR 24/09 A3005 RMK AO2 T02390088 10312 20230 403270160
KPRS 190535Z AUTO 35004KT 10SM CLR 23/10 A3006 RMK AO2 T02310103
KPRS 190515Z AUTO 32005KT 10SM CLR 24/11 A3007 RMK AO2 T02400107
KPRS 190455Z AUTO 31008KT 10SM CLR 25/11 A3007 RMK AO2 T02470107
KPRS 190435Z AUTO 28011G16KT 10SM SCT120 25/11 A3008 RMK AO2 T02520105
KPRS 190415Z AUTO 29012G19KT 10SM BKN120 27/04 A3008 RMK AO2 T02660039
KPRS 190355Z AUTO 26010G15KT 10SM SCT110 25/04 A3007 RMK AO2 T02520036
KPRS 190335Z AUTO 36003KT 10SM CLR 26/04 A3004 RMK AO2 T02610035
KPRS 190315Z AUTO 05003KT 10SM CLR 26/04 A3004 RMK AO2 T02600036
KPRS 190255Z AUTO 03005KT 10SM CLR 26/04 A3004 RMK AO2 T02630035
KPRS 190235Z AUTO 05004KT 10SM SCT110 27/03 A3004 RMK AO2 LTG DSNT NW T02650029
KPRS 190215Z AUTO 04004KT 10SM SCT110 27/03 A3005 RMK AO2 T02650025
KPRS 190155Z AUTO 06003KT 10SM CLR 27/03 A3004 RMK AO2 T02650026
KPRS 190135Z AUTO 10004KT 10SM CLR 28/03 A3003 RMK AO2 LTG DSNT NW T02750028
KPRS 190115Z AUTO 10005KT 10SM CLR 28/03 A3002 RMK AO2 T02760029
KPRS 190055Z AUTO 14005KT 10SM CLR 29/03 A3001 RMK AO2 LTG DSNT W T02860027
KPRS 190035Z AUTO 11004KT 10SM CLR 29/03 A3000 RMK AO2 T02900028
KPRS 190015Z AUTO 11003KT 10SM CLR 30/03 A3000 RMK AO2 T03020031
KPRS 182355Z AUTO 12006KT 10SM CLR 31/03 A3000 RMK AO2 T03140032 10327 20276
KPRS 182335Z AUTO 11003KT 10SM CLR 32/02 A3000 RMK AO2 T03190022
KPRS 182315Z AUTO 09003KT 10SM CLR 33/01 A3000 RMK AO2 T03250010
KPRS 182255Z AUTO 09004KT 10SM CLR 32/02 A3001 RMK AO2 T03210022
KPRS 182235Z AUTO 08004KT 10SM CLR 32/03 A3001 RMK AO2 T03210025
KPRS 182215Z AUTO 05003KT 10SM CLR 32/04 A3002 RMK AO2 T03210038
KPRS 182155Z AUTO 09004KT 10SM CLR 32/04 A3002 RMK AO2 T03230043
KPRS 182135Z AUTO 12003KT 10SM CLR 32/04 A3003 RMK AO2 T03200044
KPRS 182115Z AUTO 16004KT 10SM CLR 32/05 A3004 RMK AO2 T03190046
KPRS 182055Z AUTO 17003KT 10SM CLR 32/05 A3004 RMK AO2 T03150046
KPRS 182035Z AUTO 15005KT 10SM CLR 31/05 A3005 RMK AO2 T03090046
KPRS 182015Z AUTO 15005KT 10SM CLR 31/05 A3006 RMK AO2 T03080045
KPRS 181955Z AUTO 18003KT 10SM CLR 30/04 A3007 RMK AO2 T03010042
KPRS 181935Z AUTO 20004KT 10SM CLR 30/04 A3008 RMK AO2 T02980041
KPRS 181915Z AUTO 18004KT 10SM CLR 29/04 A3010 RMK AO2 T02900041
KPRS 181855Z AUTO 00000KT 10SM CLR 29/03 A3011 RMK AO2 T02870030
KPRS 181835Z AUTO 14004KT 10SM CLR 29/03 A3012 RMK AO2 T02890031
KPRS 181815Z AUTO 00000KT 10SM CLR 29/02 A3013 RMK AO2 T02850024
KPRS 181755Z AUTO 00000KT 10SM CLR 28/02 A3014 RMK AO2 T02760018 10277 20160
KPRS 181735Z AUTO 14003KT 10SM CLR 27/01 A3015 RMK AO2 T02700012
KPRS 181715Z AUTO 14006KT 10SM CLR 27/00 A3016 RMK AO2 T02710003
KPRS 181655Z AUTO 09005KT 10SM CLR 26/00 A3016 RMK AO2 T02620000
KPRS 181635Z AUTO 09004KT 10SM CLR 26/M01 A3016 RMK AO2 T02601008
KPRS 181615Z AUTO 09003KT 10SM CLR 26/00 A3017 RMK AO2 T02551005
KPRS 181555Z AUTO 09004KT 10SM CLR 25/00 A3017 RMK AO2 T02501002
KPRS 181535Z AUTO 00000KT 10SM CLR 22/02 A3017 RMK AO2 T02220022
KPRS 181515Z AUTO 18004KT 10SM CLR 21/02 A3017 RMK AO2 T02100018
KPRS 181455Z AUTO 00000KT 10SM CLR 21/01 A3016 RMK AO2 T02060014
KPRS 181435Z AUTO 00000KT 10SM CLR 20/01 A3016 RMK AO2 T01970010
KPRS 181415Z AUTO 00000KT 10SM CLR 19/02 A3016 RMK AO2 T01860023
KPRS 181355Z AUTO 00000KT 10SM CLR 17/02 A3015 RMK AO2 T01740020
KPRS 181335Z AUTO 00000KT 10SM CLR 16/02 A3015 RMK AO2 T01620020
KPRS 181315Z AUTO 00000KT 10SM CLR 17/02 A3013 RMK AO2 T01660018
KPRS 181255Z AUTO 02004KT 10SM CLR 17/02 A3012 RMK AO2 T01670020
KPRS 181235Z AUTO 02003KT 10SM CLR 17/02 A3012 RMK AO2 T01700020
KPRS 181215Z AUTO 02003KT 10SM CLR 18/02 A3012 RMK AO2 T01750020
KPRS 181155Z AUTO 00000KT 10SM CLR 18/02 A3012 RMK AO2 T01750020 10217 20175
KPRS 181135Z AUTO 36005KT 10SM CLR 18/02 A3012 RMK AO2 T01780020
KPRS 181115Z AUTO 36004KT 10SM CLR 18/02 A3011 RMK AO2 T01770020
KPRS 181055Z AUTO 02003KT 10SM CLR 18/02 A3011 RMK AO2 T01820019
KPRS 181035Z AUTO 36007KT 10SM CLR 19/02 A3011 RMK AO2 T01850021
KPRS 181015Z AUTO 35008KT 10SM CLR 19/02 A3011 RMK AO2 T01850019
KPRS 180955Z AUTO 36008KT 10SM CLR 19/02 A3011 RMK AO2 T01890017
KPRS 180935Z AUTO 36009KT 10SM CLR 19/02 A3011 RMK AO2 T01890018
KPRS 180915Z AUTO 36008KT 10SM CLR 19/02 A3012 RMK AO2 T01910018
KPRS 180855Z AUTO 36008KT 10SM CLR 19/02 A3012 RMK AO2 T01910016
KPRS 180835Z AUTO 36007KT 10SM CLR 20/01 A3013 RMK AO2 T01950010
KPRS 180815Z AUTO 01006KT 10SM CLR 20/01 A3013 RMK AO2 T01970007
KPRS 180755Z AUTO 36007KT 10SM CLR 20/01 A3013 RMK AO2 T01970005
KPRS 180735Z AUTO 01007KT 10SM CLR 21/01 A3013 RMK AO2 T02050005
KPRS 180715Z AUTO 01008KT 10SM CLR 21/01 A3013 RMK AO2 T02080006
KPRS 180655Z AUTO 01008KT 10SM CLR 21/01 A3013 RMK AO2 T02100008
KPRS 180635Z AUTO 01009KT 10SM CLR 21/01 A3013 RMK AO2 T02140009